Brentford, United Kingdom
Current Conditions -  °F | °C
As of 5:50 PM on Tuesday 21 Oct 2014 (Local Time) from EGLL Reporting Station
Rain Showers Rain Showers  
Wind Chill: 54°   Ceiling: Unl
Heat Index: 54°   Visibility: 6mi
Dew Point: 37°   Wind: 16mph
Humidity: 54%   Direction: 290°WNW
Pressure: 29.88"   Gusts: 28mph
Location:  51.48°N, 0.3°W
Report Text: EGLL 211650Z 29014G24KT 9999 VCSH FEW040CB 12/03 Q1012 TEMPO SHRA
Loading
Personal Weather Stations






























Interactive Weather Map
Tropical Storm Tracking
New forecast layout! Learn more

10-Day Weather Forecast

Advertisements
Track Severe Weather on mobile